sensor_id;sensor_type;location;lat;lon;timestamp;pressure;altitude;pressure_sealevel;temperature;humidity
56272;BME280;42177;48.914;18.160;2023-05-21T00:01:43;988.2;;;17.5;100
56272;BME280;42177;48.914;18.160;2023-05-21T00:06:43;988.3;;;17.5;100
56272;BME280;42177;48.914;18.160;2023-05-21T00:11:43;988.3;;;17.5;100
56272;BME280;42177;48.914;18.160;2023-05-21T00:16:44;988.3;;;17.2;100
56272;BME280;42177;48.914;18.160;2023-05-21T00:21:43;988.3;;;17.2;100
56272;BME280;42177;48.914;18.160;2023-05-21T00:26:43;988.4;;;17.1;100
56272;BME280;42177;48.914;18.160;2023-05-21T00:31:43;988.4;;;17.1;100
56272;BME280;42177;48.914;18.160;2023-05-21T00:36:44;988.4;;;16.7;100
56272;BME280;42177;48.914;18.160;2023-05-21T00:41:43;988.4;;;16.7;100
56272;BME280;42177;48.914;18.160;2023-05-21T00:46:43;988.3;;;17;100
56272;BME280;42177;48.914;18.160;2023-05-21T00:51:43;988.3;;;17;100
56272;BME280;42177;48.914;18.160;2023-05-21T00:56:43;988.2;;;16.4;100
56272;BME280;42177;48.914;18.160;2023-05-21T01:01:43;988.2;;;16.4;100
56272;BME280;42177;48.914;18.160;2023-05-21T01:06:43;988.1;;;16.1;100
56272;BME280;42177;48.914;18.160;2023-05-21T01:11:45;988.1;;;16.1;100
56272;BME280;42177;48.914;18.160;2023-05-21T01:16:44;988.1;;;16.1;100
56272;BME280;42177;48.914;18.160;2023-05-21T01:21:44;988.1;;;16.1;100
56272;BME280;42177;48.914;18.160;2023-05-21T01:26:43;987.9;;;15.6;100
56272;BME280;42177;48.914;18.160;2023-05-21T01:31:47;987.9;;;15.6;100
56272;BME280;42177;48.914;18.160;2023-05-21T01:36:46;988;;;15.8;100
56272;BME280;42177;48.914;18.160;2023-05-21T01:41:44;988;;;15.8;100
56272;BME280;42177;48.914;18.160;2023-05-21T01:46:43;987.8;;;15.7;100
56272;BME280;42177;48.914;18.160;2023-05-21T01:51:43;987.8;;;15.7;100
56272;BME280;42177;48.914;18.160;2023-05-21T01:56:43;987.8;;;15.6;100
56272;BME280;42177;48.914;18.160;2023-05-21T02:01:43;987.8;;;15.6;100
56272;BME280;42177;48.914;18.160;2023-05-21T02:06:43;987.8;;;15.8;100
56272;BME280;42177;48.914;18.160;2023-05-21T02:11:43;987.8;;;15.8;100
56272;BME280;42177;48.914;18.160;2023-05-21T02:16:43;987.9;;;15.6;100
56272;BME280;42177;48.914;18.160;2023-05-21T02:21:43;987.9;;;15.6;100
56272;BME280;42177;48.914;18.160;2023-05-21T02:26:43;987.9;;;15.7;100
56272;BME280;42177;48.914;18.160;2023-05-21T02:31:43;987.9;;;15.7;100
56272;BME280;42177;48.914;18.160;2023-05-21T02:36:43;987.9;;;15.4;100
56272;BME280;42177;48.914;18.160;2023-05-21T02:41:44;987.9;;;15.4;100
56272;BME280;42177;48.914;18.160;2023-05-21T02:46:43;987.9;;;15.6;100
56272;BME280;42177;48.914;18.160;2023-05-21T02:51:43;987.9;;;15.6;100
56272;BME280;42177;48.914;18.160;2023-05-21T02:56:43;987.9;;;15.6;100
56272;BME280;42177;48.914;18.160;2023-05-21T03:01:43;987.9;;;15.6;100
56272;BME280;42177;48.914;18.160;2023-05-21T03:06:43;987.9;;;15.5;100
56272;BME280;42177;48.914;18.160;2023-05-21T03:11:43;987.9;;;15.5;100
56272;BME280;42177;48.914;18.160;2023-05-21T03:16:43;987.9;;;15.3;100
56272;BME280;42177;48.914;18.160;2023-05-21T03:21:43;987.9;;;15.3;100
56272;BME280;42177;48.914;18.160;2023-05-21T03:26:43;987.9;;;15.2;100
56272;BME280;42177;48.914;18.160;2023-05-21T03:31:43;987.9;;;15.2;100
56272;BME280;42177;48.914;18.160;2023-05-21T03:36:43;987.8;;;15.1;100
56272;BME280;42177;48.914;18.160;2023-05-21T03:41:43;987.8;;;15.1;100
56272;BME280;42177;48.914;18.160;2023-05-21T03:46:43;987.8;;;15.2;100
56272;BME280;42177;48.914;18.160;2023-05-21T03:51:43;987.8;;;15.2;100
56272;BME280;42177;48.914;18.160;2023-05-21T03:56:43;987.8;;;14.9;100
56272;BME280;42177;48.914;18.160;2023-05-21T04:01:43;987.8;;;14.9;100
56272;BME280;42177;48.914;18.160;2023-05-21T04:06:43;987.8;;;15.6;100
56272;BME280;42177;48.914;18.160;2023-05-21T04:11:43;987.8;;;15.6;100
56272;BME280;42177;48.914;18.160;2023-05-21T04:16:43;987.8;;;15;100
56272;BME280;42177;48.914;18.160;2023-05-21T04:21:43;987.8;;;15;100
56272;BME280;42177;48.914;18.160;2023-05-21T04:26:43;987.7;;;14.7;100
56272;BME280;42177;48.914;18.160;2023-05-21T04:31:43;987.7;;;14.7;100
56272;BME280;42177;48.914;18.160;2023-05-21T04:36:43;987.8;;;15.1;100
56272;BME280;42177;48.914;18.160;2023-05-21T04:41:43;987.8;;;15.1;100
56272;BME280;42177;48.914;18.160;2023-05-21T04:46:43;987.8;;;15.5;100
56272;BME280;42177;48.914;18.160;2023-05-21T04:51:43;987.8;;;15.5;100
56272;BME280;42177;48.914;18.160;2023-05-21T04:56:43;987.8;;;15.7;100
56272;BME280;42177;48.914;18.160;2023-05-21T05:01:43;987.8;;;15.7;100
56272;BME280;42177;48.914;18.160;2023-05-21T05:06:43;987.7;;;15.9;100
56272;BME280;42177;48.914;18.160;2023-05-21T05:11:43;987.7;;;15.9;100
56272;BME280;42177;48.914;18.160;2023-05-21T05:16:43;987.8;;;16.6;99.1
56272;BME280;42177;48.914;18.160;2023-05-21T05:21:43;987.8;;;16.6;99.1
56272;BME280;42177;48.914;18.160;2023-05-21T05:26:44;987.8;;;17;98.2
56272;BME280;42177;48.914;18.160;2023-05-21T05:31:43;987.8;;;17;98.2
56272;BME280;42177;48.914;18.160;2023-05-21T05:36:43;987.7;;;17.3;100
56272;BME280;42177;48.914;18.160;2023-05-21T05:41:43;987.7;;;17.3;100
56272;BME280;42177;48.914;18.160;2023-05-21T05:46:43;987.7;;;17.6;99.3
56272;BME280;42177;48.914;18.160;2023-05-21T05:51:43;987.7;;;17.6;99.3
56272;BME280;42177;48.914;18.160;2023-05-21T05:56:43;987.7;;;17.6;99.9
56272;BME280;42177;48.914;18.160;2023-05-21T06:01:43;987.7;;;17.6;99.9
56272;BME280;42177;48.914;18.160;2023-05-21T06:06:43;987.5;;;17.9;100
56272;BME280;42177;48.914;18.160;2023-05-21T06:11:43;987.5;;;17.9;100
56272;BME280;42177;48.914;18.160;2023-05-21T06:16:43;987.6;;;18.5;98.2
56272;BME280;42177;48.914;18.160;2023-05-21T06:21:43;987.6;;;18.5;98.2
56272;BME280;42177;48.914;18.160;2023-05-21T06:26:43;987.4;;;18.8;97.9
56272;BME280;42177;48.914;18.160;2023-05-21T06:31:43;987.4;;;18.8;97.9
56272;BME280;42177;48.914;18.160;2023-05-21T06:36:43;987.5;;;19.4;96.1
56272;BME280;42177;48.914;18.160;2023-05-21T06:41:43;987.5;;;19.4;96.1
56272;BME280;42177;48.914;18.160;2023-05-21T06:46:43;987.4;;;19.6;95
56272;BME280;42177;48.914;18.160;2023-05-21T06:51:43;987.4;;;19.6;95
56272;BME280;42177;48.914;18.160;2023-05-21T06:56:43;987.3;;;20;93.2
56272;BME280;42177;48.914;18.160;2023-05-21T07:01:43;987.3;;;20;93.2
56272;BME280;42177;48.914;18.160;2023-05-21T07:06:43;987.3;;;20.6;91
56272;BME280;42177;48.914;18.160;2023-05-21T07:11:43;987.3;;;20.6;91
56272;BME280;42177;48.914;18.160;2023-05-21T07:16:43;987.2;;;20.7;89.7
56272;BME280;42177;48.914;18.160;2023-05-21T07:21:44;987.2;;;20.7;89.7
56272;BME280;42177;48.914;18.160;2023-05-21T07:26:43;987.1;;;21.2;89
56272;BME280;42177;48.914;18.160;2023-05-21T07:31:43;987.1;;;21.2;89
56272;BME280;42177;48.914;18.160;2023-05-21T07:36:43;987.1;;;21.4;83.9
56272;BME280;42177;48.914;18.160;2023-05-21T07:41:43;987.1;;;21.4;83.9
56272;BME280;42177;48.914;18.160;2023-05-21T07:46:43;987;;;21.6;83.9
56272;BME280;42177;48.914;18.160;2023-05-21T07:51:43;987;;;21.6;83.9
56272;BME280;42177;48.914;18.160;2023-05-21T07:56:43;987;;;22;83
56272;BME280;42177;48.914;18.160;2023-05-21T08:01:43;987;;;22;83
56272;BME280;42177;48.914;18.160;2023-05-21T08:06:43;986.9;;;22.4;80.2
56272;BME280;42177;48.914;18.160;2023-05-21T08:11:43;986.9;;;22.4;80.2
56272;BME280;42177;48.914;18.160;2023-05-21T08:16:43;986.9;;;22.7;76
56272;BME280;42177;48.914;18.160;2023-05-21T08:21:44;986.9;;;22.7;76
56272;BME280;42177;48.914;18.160;2023-05-21T08:26:43;986.8;;;23.2;68.4
56272;BME280;42177;48.914;18.160;2023-05-21T08:31:43;986.8;;;23.2;68.4
56272;BME280;42177;48.914;18.160;2023-05-21T08:36:43;986.8;;;23.6;65.8
56272;BME280;42177;48.914;18.160;2023-05-21T08:41:44;986.8;;;23.6;65.8
56272;BME280;42177;48.914;18.160;2023-05-21T08:46:44;986.8;;;24.2;59.9
56272;BME280;42177;48.914;18.160;2023-05-21T08:51:44;986.8;;;24.2;59.9
56272;BME280;42177;48.914;18.160;2023-05-21T08:56:43;986.7;;;24.2;60.8
56272;BME280;42177;48.914;18.160;2023-05-21T09:01:44;986.7;;;24.2;60.8
56272;BME280;42177;48.914;18.160;2023-05-21T09:06:43;986.8;;;24.7;54
56272;BME280;42177;48.914;18.160;2023-05-21T09:11:44;986.8;;;24.7;54
56272;BME280;42177;48.914;18.160;2023-05-21T09:16:44;986.7;;;24.8;54.2
56272;BME280;42177;48.914;18.160;2023-05-21T09:21:44;986.7;;;24.8;54.2
56272;BME280;42177;48.914;18.160;2023-05-21T09:26:43;986.8;;;25.1;54.8
56272;BME280;42177;48.914;18.160;2023-05-21T09:31:43;986.8;;;25.1;54.8
56272;BME280;42177;48.914;18.160;2023-05-21T09:36:43;986.7;;;25.7;57
56272;BME280;42177;48.914;18.160;2023-05-21T09:41:44;986.7;;;25.7;57
56272;BME280;42177;48.914;18.160;2023-05-21T09:46:43;986.7;;;26.2;47.6
56272;BME280;42177;48.914;18.160;2023-05-21T09:51:43;986.7;;;26.2;47.6
56272;BME280;42177;48.914;18.160;2023-05-21T09:56:43;986.6;;;25.6;49.9
56272;BME280;42177;48.914;18.160;2023-05-21T10:01:44;986.6;;;25.6;49.9
56272;BME280;42177;48.914;18.160;2023-05-21T10:06:43;986.5;;;26.4;50.7
56272;BME280;42177;48.914;18.160;2023-05-21T10:11:44;986.5;;;26.4;50.7
56272;BME280;42177;48.914;18.160;2023-05-21T10:16:43;986.4;;;25;48.1
56272;BME280;42177;48.914;18.160;2023-05-21T10:21:44;986.4;;;25;48.1
56272;BME280;42177;48.914;18.160;2023-05-21T10:26:43;986.4;;;24.6;50
56272;BME280;42177;48.914;18.160;2023-05-21T10:31:44;986.4;;;24.6;50
56272;BME280;42177;48.914;18.160;2023-05-21T10:36:43;986.2;;;24.5;52.3
56272;BME280;42177;48.914;18.160;2023-05-21T10:41:45;986.2;;;24.5;52.3
56272;BME280;42177;48.914;18.160;2023-05-21T10:47:04;986.3;;;24;55.6
56272;BME280;42177;48.914;18.160;2023-05-21T10:51:45;986.3;;;24;55.6
56272;BME280;42177;48.914;18.160;2023-05-21T10:56:44;986.4;;;24.2;58.9
56272;BME280;42177;48.914;18.160;2023-05-21T11:01:44;986.4;;;24.2;58.9
56272;BME280;42177;48.914;18.160;2023-05-21T11:06:45;986.3;;;24.2;75.5
56272;BME280;42177;48.914;18.160;2023-05-21T11:11:44;986.3;;;24.2;75.5
56272;BME280;42177;48.914;18.160;2023-05-21T11:16:44;986.3;;;24.1;73.7
56272;BME280;42177;48.914;18.160;2023-05-21T11:21:46;986.3;;;24.1;73.7
56272;BME280;42177;48.914;18.160;2023-05-21T11:27:00;986.2;;;24.1;74.1
56272;BME280;42177;48.914;18.160;2023-05-21T11:31:44;986.2;;;24.1;74.1
56272;BME280;42177;48.914;18.160;2023-05-21T11:36:44;986.2;;;23.8;76.6
56272;BME280;42177;48.914;18.160;2023-05-21T11:41:51;986.2;;;23.8;76.6
56272;BME280;42177;48.914;18.160;2023-05-21T11:46:44;986;;;23.3;86.1
56272;BME280;42177;48.914;18.160;2023-05-21T11:51:44;986;;;23.3;86.1
56272;BME280;42177;48.914;18.160;2023-05-21T11:56:44;986;;;25.1;77.5
56272;BME280;42177;48.914;18.160;2023-05-21T12:01:44;986;;;25.1;77.5
56272;BME280;42177;48.914;18.160;2023-05-21T12:06:43;985.8;;;25.6;65.5
56272;BME280;42177;48.914;18.160;2023-05-21T12:11:43;985.8;;;25.6;65.5
56272;BME280;42177;48.914;18.160;2023-05-21T12:16:44;985.7;;;25.4;65.4
56272;BME280;42177;48.914;18.160;2023-05-21T12:21:44;985.7;;;25.4;65.4
56272;BME280;42177;48.914;18.160;2023-05-21T12:26:44;985.8;;;23.7;80.1
56272;BME280;42177;48.914;18.160;2023-05-21T12:31:46;985.8;;;23.7;80.1
56272;BME280;42177;48.914;18.160;2023-05-21T12:36:44;985.8;;;23.2;81.9
56272;BME280;42177;48.914;18.160;2023-05-21T12:41:44;985.8;;;23.2;81.9
56272;BME280;42177;48.914;18.160;2023-05-21T12:46:44;985.8;;;22.6;83.7
56272;BME280;42177;48.914;18.160;2023-05-21T12:51:44;985.8;;;22.6;83.7
56272;BME280;42177;48.914;18.160;2023-05-21T12:56:44;985.7;;;22.3;83.9
56272;BME280;42177;48.914;18.160;2023-05-21T13:01:45;985.7;;;22.3;83.9
56272;BME280;42177;48.914;18.160;2023-05-21T13:06:44;985.9;;;22;87.9
56272;BME280;42177;48.914;18.160;2023-05-21T13:11:44;985.9;;;22;87.9
56272;BME280;42177;48.914;18.160;2023-05-21T13:16:45;986;;;21.3;84.4
56272;BME280;42177;48.914;18.160;2023-05-21T13:21:44;986;;;21.3;84.4
56272;BME280;42177;48.914;18.160;2023-05-21T13:26:44;985.8;;;21.4;78.5
56272;BME280;42177;48.914;18.160;2023-05-21T13:31:44;985.8;;;21.4;78.5
56272;BME280;42177;48.914;18.160;2023-05-21T13:36:44;985.6;;;21.6;78.4
56272;BME280;42177;48.914;18.160;2023-05-21T13:41:44;985.6;;;21.6;78.4
56272;BME280;42177;48.914;18.160;2023-05-21T13:46:44;985.8;;;21.6;77.9
56272;BME280;42177;48.914;18.160;2023-05-21T13:51:44;985.8;;;21.6;77.9
56272;BME280;42177;48.914;18.160;2023-05-21T13:56:44;985.7;;;21.7;78.3
56272;BME280;42177;48.914;18.160;2023-05-21T14:01:44;985.7;;;21.7;78.3
56272;BME280;42177;48.914;18.160;2023-05-21T14:06:44;985.6;;;21.6;76.6
56272;BME280;42177;48.914;18.160;2023-05-21T14:11:44;985.6;;;21.6;76.6
56272;BME280;42177;48.914;18.160;2023-05-21T14:16:44;985.8;;;21.7;76.3
56272;BME280;42177;48.914;18.160;2023-05-21T14:21:44;985.8;;;21.7;76.3
56272;BME280;42177;48.914;18.160;2023-05-21T14:26:44;985.6;;;21.6;71.6
56272;BME280;42177;48.914;18.160;2023-05-21T14:31:44;985.6;;;21.6;71.6
56272;BME280;42177;48.914;18.160;2023-05-21T14:36:44;985.7;;;21.6;78.6
56272;BME280;42177;48.914;18.160;2023-05-21T14:41:44;985.7;;;21.6;78.6
56272;BME280;42177;48.914;18.160;2023-05-21T14:46:44;986;;;21.4;78.9
56272;BME280;42177;48.914;18.160;2023-05-21T14:51:44;986;;;21.4;78.9
56272;BME280;42177;48.914;18.160;2023-05-21T14:56:44;986.1;;;21.2;72.2
56272;BME280;42177;48.914;18.160;2023-05-21T15:01:44;986.1;;;21.2;72.2
56272;BME280;42177;48.914;18.160;2023-05-21T15:06:44;986.2;;;21;72.2
56272;BME280;42177;48.914;18.160;2023-05-21T15:11:44;986.2;;;21;72.2
56272;BME280;42177;48.914;18.160;2023-05-21T15:16:44;986.3;;;21;70.5
56272;BME280;42177;48.914;18.160;2023-05-21T15:21:44;986.3;;;21;70.5
56272;BME280;42177;48.914;18.160;2023-05-21T15:26:44;986.1;;;21.1;66.6
56272;BME280;42177;48.914;18.160;2023-05-21T15:31:44;986.1;;;21.1;66.6
56272;BME280;42177;48.914;18.160;2023-05-21T15:36:44;986.2;;;20.9;67.5
56272;BME280;42177;48.914;18.160;2023-05-21T15:41:44;986.2;;;20.9;67.5
56272;BME280;42177;48.914;18.160;2023-05-21T15:46:44;986.2;;;20.7;70.6
56272;BME280;42177;48.914;18.160;2023-05-21T15:51:44;986.2;;;20.7;70.6
56272;BME280;42177;48.914;18.160;2023-05-21T15:56:44;986.2;;;20.5;72.5
56272;BME280;42177;48.914;18.160;2023-05-21T16:01:44;986.2;;;20.5;72.5
56272;BME280;42177;48.914;18.160;2023-05-21T16:06:44;986.2;;;20.4;74.7
56272;BME280;42177;48.914;18.160;2023-05-21T16:11:44;986.2;;;20.4;74.7
56272;BME280;42177;48.914;18.160;2023-05-21T16:16:44;986.1;;;20.5;75.5
56272;BME280;42177;48.914;18.160;2023-05-21T16:21:44;986.1;;;20.5;75.5
56272;BME280;42177;48.914;18.160;2023-05-21T16:26:44;986.1;;;20.7;76.7
56272;BME280;42177;48.914;18.160;2023-05-21T16:31:44;986.1;;;20.7;76.7
56272;BME280;42177;48.914;18.160;2023-05-21T16:36:44;986.2;;;20.4;81.2
56272;BME280;42177;48.914;18.160;2023-05-21T16:41:44;986.2;;;20.4;81.2
56272;BME280;42177;48.914;18.160;2023-05-21T16:46:44;986.1;;;20.2;85.2
56272;BME280;42177;48.914;18.160;2023-05-21T16:51:44;986.1;;;20.2;85.2
56272;BME280;42177;48.914;18.160;2023-05-21T16:56:44;986.1;;;20.2;84.3
56272;BME280;42177;48.914;18.160;2023-05-21T17:01:44;986.1;;;20.2;84.3
56272;BME280;42177;48.914;18.160;2023-05-21T17:06:44;986.2;;;19.8;90.6
56272;BME280;42177;48.914;18.160;2023-05-21T17:11:44;986.2;;;19.8;90.6
56272;BME280;42177;48.914;18.160;2023-05-21T17:16:44;986.1;;;19.5;96.6
56272;BME280;42177;48.914;18.160;2023-05-21T17:21:44;986.1;;;19.5;96.6
56272;BME280;42177;48.914;18.160;2023-05-21T17:26:44;986;;;19.5;97.7
56272;BME280;42177;48.914;18.160;2023-05-21T17:31:44;986;;;19.5;97.7
56272;BME280;42177;48.914;18.160;2023-05-21T17:36:44;986.1;;;19.6;97.2
56272;BME280;42177;48.914;18.160;2023-05-21T17:41:44;986.1;;;19.6;97.2
56272;BME280;42177;48.914;18.160;2023-05-21T17:46:44;985.9;;;19.4;98.1
56272;BME280;42177;48.914;18.160;2023-05-21T17:51:44;985.9;;;19.4;98.1
56272;BME280;42177;48.914;18.160;2023-05-21T17:56:44;985.9;;;19.2;98.8
56272;BME280;42177;48.914;18.160;2023-05-21T18:01:44;985.9;;;19.2;98.8
56272;BME280;42177;48.914;18.160;2023-05-21T18:06:44;985.9;;;18.9;99.9
56272;BME280;42177;48.914;18.160;2023-05-21T18:11:44;985.9;;;18.9;99.9
56272;BME280;42177;48.914;18.160;2023-05-21T18:16:44;985.9;;;18.9;100
56272;BME280;42177;48.914;18.160;2023-05-21T18:21:44;985.9;;;18.9;100
56272;BME280;42177;48.914;18.160;2023-05-21T18:26:44;985.8;;;18.6;100
56272;BME280;42177;48.914;18.160;2023-05-21T18:31:44;985.8;;;18.6;100
56272;BME280;42177;48.914;18.160;2023-05-21T18:36:44;986;;;18.5;100
56272;BME280;42177;48.914;18.160;2023-05-21T18:41:44;986;;;18.5;100
56272;BME280;42177;48.914;18.160;2023-05-21T18:46:44;986;;;18.3;100
56272;BME280;42177;48.914;18.160;2023-05-21T18:51:44;986;;;18.3;100
56272;BME280;42177;48.914;18.160;2023-05-21T18:56:44;985.9;;;18.3;100
56272;BME280;42177;48.914;18.160;2023-05-21T19:01:44;985.9;;;18.3;100
56272;BME280;42177;48.914;18.160;2023-05-21T19:06:44;986;;;18.1;100
56272;BME280;42177;48.914;18.160;2023-05-21T19:11:44;986;;;18.1;100
56272;BME280;42177;48.914;18.160;2023-05-21T19:16:44;986.1;;;18;100
56272;BME280;42177;48.914;18.160;2023-05-21T19:21:44;986.1;;;18;100
56272;BME280;42177;48.914;18.160;2023-05-21T19:26:44;986.1;;;17.7;100
56272;BME280;42177;48.914;18.160;2023-05-21T19:31:44;986.1;;;17.7;100
56272;BME280;42177;48.914;18.160;2023-05-21T19:36:44;986;;;17.8;100
56272;BME280;42177;48.914;18.160;2023-05-21T19:41:44;986;;;17.8;100
56272;BME280;42177;48.914;18.160;2023-05-21T19:46:44;986.1;;;17.6;100
56272;BME280;42177;48.914;18.160;2023-05-21T19:51:44;986.1;;;17.6;100
56272;BME280;42177;48.914;18.160;2023-05-21T19:56:44;986.1;;;17.5;100
56272;BME280;42177;48.914;18.160;2023-05-21T20:01:44;986.1;;;17.5;100
56272;BME280;42177;48.914;18.160;2023-05-21T20:06:44;986;;;17.4;100
56272;BME280;42177;48.914;18.160;2023-05-21T20:11:44;986;;;17.4;100
56272;BME280;42177;48.914;18.160;2023-05-21T20:16:44;986;;;17.3;100
56272;BME280;42177;48.914;18.160;2023-05-21T20:21:44;986;;;17.3;100
56272;BME280;42177;48.914;18.160;2023-05-21T20:26:44;986;;;17;100
56272;BME280;42177;48.914;18.160;2023-05-21T20:31:44;986;;;17;100
56272;BME280;42177;48.914;18.160;2023-05-21T20:36:44;985.8;;;17.1;100
56272;BME280;42177;48.914;18.160;2023-05-21T20:41:44;985.8;;;17.1;100
56272;BME280;42177;48.914;18.160;2023-05-21T20:46:44;985.8;;;17.1;100
56272;BME280;42177;48.914;18.160;2023-05-21T20:51:44;985.8;;;17.1;100
56272;BME280;42177;48.914;18.160;2023-05-21T20:56:44;985.8;;;17.3;100
56272;BME280;42177;48.914;18.160;2023-05-21T21:01:44;985.8;;;17.3;100
56272;BME280;42177;48.914;18.160;2023-05-21T21:06:44;985.9;;;16.7;100
56272;BME280;42177;48.914;18.160;2023-05-21T21:11:44;985.9;;;16.7;100
56272;BME280;42177;48.914;18.160;2023-05-21T21:16:44;986;;;17;100
56272;BME280;42177;48.914;18.160;2023-05-21T21:21:44;986;;;17;100
56272;BME280;42177;48.914;18.160;2023-05-21T21:26:44;986;;;16.9;100
56272;BME280;42177;48.914;18.160;2023-05-21T21:31:44;986;;;16.9;100
56272;BME280;42177;48.914;18.160;2023-05-21T21:36:44;986;;;16.5;100
56272;BME280;42177;48.914;18.160;2023-05-21T21:41:44;986;;;16.5;100
56272;BME280;42177;48.914;18.160;2023-05-21T21:46:44;986.1;;;16.4;100
56272;BME280;42177;48.914;18.160;2023-05-21T21:51:44;986.1;;;16.4;100
56272;BME280;42177;48.914;18.160;2023-05-21T21:56:44;985.9;;;16.6;100
56272;BME280;42177;48.914;18.160;2023-05-21T22:01:44;985.9;;;16.6;100
56272;BME280;42177;48.914;18.160;2023-05-21T22:06:44;986;;;16.5;100
56272;BME280;42177;48.914;18.160;2023-05-21T22:11:44;986;;;16.5;100
56272;BME280;42177;48.914;18.160;2023-05-21T22:16:44;985.9;;;16.4;100
56272;BME280;42177;48.914;18.160;2023-05-21T22:21:44;985.9;;;16.4;100
56272;BME280;42177;48.914;18.160;2023-05-21T22:26:44;985.9;;;16.2;100
56272;BME280;42177;48.914;18.160;2023-05-21T22:31:44;985.9;;;16.2;100
56272;BME280;42177;48.914;18.160;2023-05-21T22:36:44;985.9;;;15.8;100
56272;BME280;42177;48.914;18.160;2023-05-21T22:41:44;985.9;;;15.8;100
56272;BME280;42177;48.914;18.160;2023-05-21T22:46:44;985.9;;;15.5;100
56272;BME280;42177;48.914;18.160;2023-05-21T22:51:44;985.9;;;15.5;100
56272;BME280;42177;48.914;18.160;2023-05-21T22:56:44;985.8;;;15.7;100
56272;BME280;42177;48.914;18.160;2023-05-21T23:01:44;985.8;;;15.7;100
56272;BME280;42177;48.914;18.160;2023-05-21T23:31:45;985.8;;;15.3;100
56272;BME280;42177;48.914;18.160;2023-05-21T23:37:49;985.8;;;15.5;100
56272;BME280;42177;48.914;18.160;2023-05-21T23:41:44;985.8;;;15.5;100
56272;BME280;42177;48.914;18.160;2023-05-21T23:46:44;986;;;15.5;100
56272;BME280;42177;48.914;18.160;2023-05-21T23:51:44;986;;;15.5;100
56272;BME280;42177;48.914;18.160;2023-05-21T23:56:44;985.7;;;14.9;100
